createdAt,value
2019-01-06T00:00:34.834Z,7.10
2019-01-06T00:03:20.954Z,7.10
2019-01-06T00:06:17.815Z,7.00
2019-01-06T00:09:14.414Z,7.10
2019-01-06T00:12:03.034Z,7.00
2019-01-06T00:14:53.931Z,7.00
2019-01-06T00:17:49.871Z,7.00
2019-01-06T00:20:49.542Z,7.00
2019-01-06T00:23:46.513Z,7.00
2019-01-06T00:26:32.762Z,7.00
2019-01-06T00:29:19.203Z,7.00
2019-01-06T00:32:13.131Z,7.00
2019-01-06T00:34:59.282Z,7.00
2019-01-06T00:37:56.137Z,6.90
2019-01-06T00:40:49.873Z,6.90
2019-01-06T00:43:46.980Z,6.90
2019-01-06T00:46:40.657Z,6.90
2019-01-06T00:49:37.481Z,6.90
2019-01-06T00:52:23.697Z,6.90
2019-01-06T00:55:11.114Z,6.90
2019-01-06T00:58:08.076Z,7.00
2019-01-06T01:01:01.660Z,7.00
2019-01-06T01:03:44.042Z,7.00
2019-01-06T01:06:41.076Z,7.00
2019-01-06T01:09:51.629Z,7.00
2019-01-06T01:12:38.187Z,6.90
2019-01-06T01:15:24.859Z,6.90
2019-01-06T01:18:27.667Z,6.90
2019-01-06T01:21:21.539Z,6.90
2019-01-06T01:24:18.211Z,6.90
2019-01-06T01:27:04.365Z,6.90
2019-01-06T01:29:50.827Z,6.90
2019-01-06T01:32:37.353Z,7.00
2019-01-06T01:35:40.132Z,7.00
2019-01-06T01:38:36.488Z,7.00
2019-01-06T01:41:22.840Z,7.00
2019-01-06T01:44:19.389Z,7.00
2019-01-06T01:47:09.982Z,7.00
2019-01-06T01:50:15.817Z,7.00
2019-01-06T01:53:02.034Z,6.90
2019-01-06T01:55:48.276Z,7.00
2019-01-06T01:58:32.236Z,6.90
2019-01-06T02:01:14.773Z,7.00
2019-01-06T02:03:57.786Z,7.00
2019-01-06T02:06:48.976Z,7.00
2019-01-06T02:09:45.945Z,7.00
2019-01-06T02:12:37.566Z,7.00
2019-01-06T02:15:16.665Z,7.10
2019-01-06T02:18:07.564Z,7.00
2019-01-06T02:20:54.425Z,7.00
2019-01-06T02:23:48.294Z,7.00
2019-01-06T02:26:47.330Z,7.00
2019-01-06T02:29:33.678Z,7.10
2019-01-06T02:32:12.832Z,7.00
2019-01-06T02:35:12.568Z,7.00
2019-01-06T02:38:00.178Z,7.10
2019-01-06T02:41:06.251Z,7.10
2019-01-06T02:43:47.456Z,7.10
2019-01-06T02:46:31.824Z,7.10
2019-01-06T02:49:18.087Z,7.10
2019-01-06T02:52:09.086Z,7.10
2019-01-06T02:55:08.777Z,7.10
2019-01-06T02:57:54.623Z,7.10
2019-01-06T03:00:42.539Z,7.10
2019-01-06T03:03:28.757Z,7.10
2019-01-06T03:06:22.807Z,7.10
2019-01-06T03:09:14.831Z,7.00
2019-01-06T03:12:11.927Z,7.00
2019-01-06T03:15:05.117Z,7.00
2019-01-06T03:17:53.048Z,7.00
2019-01-06T03:20:39.663Z,7.10
2019-01-06T03:23:36.825Z,7.10
2019-01-06T03:26:33.777Z,7.10
2019-01-06T03:29:14.359Z,7.10
2019-01-06T03:32:07.911Z,7.10
2019-01-06T03:35:01.725Z,7.10
2019-01-06T03:37:48.289Z,7.10
2019-01-06T03:40:34.886Z,7.10
2019-01-06T03:43:37.955Z,7.10
2019-01-06T03:46:25.858Z,7.10
2019-01-06T03:49:13.750Z,7.10
2019-01-06T03:52:19.752Z,7.10
2019-01-06T03:55:13.681Z,7.10
2019-01-06T03:58:01.447Z,7.10
2019-01-06T04:00:48.020Z,7.20
2019-01-06T04:03:35.866Z,7.10
2019-01-06T04:06:26.819Z,7.10
2019-01-06T04:09:20.688Z,7.10
2019-01-06T04:12:08.610Z,7.10
2019-01-06T04:14:55.016Z,7.10
2019-01-06T04:17:41.597Z,7.10
2019-01-06T04:20:33.110Z,7.10
2019-01-06T04:23:19.454Z,7.10
2019-01-06T04:26:13.335Z,7.10
2019-01-06T04:29:01.136Z,7.10
2019-01-06T04:31:47.435Z,7.10
2019-01-06T04:34:44.564Z,7.10
2019-01-06T04:37:31.185Z,7.10
2019-01-06T04:40:11.060Z,7.00
2019-01-06T04:42:58.968Z,7.10
2019-01-06T04:45:46.683Z,7.00
2019-01-06T04:48:29.548Z,7.10
2019-01-06T04:51:17.674Z,7.00
2019-01-06T04:54:11.425Z,7.10
2019-01-06T04:56:53.445Z,7.10
2019-01-06T04:59:44.263Z,7.10
2019-01-06T05:02:30.565Z,7.10
2019-01-06T05:05:17.013Z,7.00
2019-01-06T05:08:13.582Z,7.00
2019-01-06T05:11:01.719Z,7.00
2019-01-06T05:13:52.425Z,7.00
2019-01-06T05:16:40.267Z,7.00
2019-01-06T05:19:26.601Z,7.00
2019-01-06T05:22:26.551Z,7.00
2019-01-06T05:25:14.529Z,7.00
2019-01-06T05:28:11.309Z,7.00
2019-01-06T05:30:57.523Z,7.00
2019-01-06T05:33:44.084Z,7.00
2019-01-06T05:36:30.690Z,7.10
2019-01-06T05:39:17.352Z,7.00
2019-01-06T05:42:20.501Z,7.10
2019-01-06T05:45:18.242Z,7.00
2019-01-06T05:48:06.371Z,7.00
2019-01-06T05:50:52.994Z,7.00
2019-01-06T05:53:40.771Z,7.00
2019-01-06T05:56:43.784Z,7.00
2019-01-06T05:59:41.401Z,7.00
2019-01-06T06:02:35.165Z,7.00
2019-01-06T06:05:21.502Z,7.00
2019-01-06T06:08:03.977Z,7.00
2019-01-06T06:10:50.328Z,7.00
2019-01-06T06:13:35.925Z,7.00
2019-01-06T06:16:36.604Z,7.00
2019-01-06T06:19:24.445Z,7.00
2019-01-06T06:22:15.071Z,7.00
2019-01-06T06:25:08.962Z,7.00
2019-01-06T06:27:54.525Z,7.00
2019-01-06T06:30:47.661Z,7.00
2019-01-06T06:33:33.371Z,7.00
2019-01-06T06:36:21.129Z,7.00
2019-01-06T06:39:26.877Z,7.00
2019-01-06T06:42:13.251Z,7.00
2019-01-06T06:45:01.067Z,7.00
2019-01-06T06:47:48.850Z,6.90
2019-01-06T06:50:36.715Z,7.00
2019-01-06T06:53:36.455Z,7.00
2019-01-06T06:56:22.980Z,7.00
2019-01-06T06:59:16.761Z,7.00
2019-01-06T07:02:56.340Z,7.00
2019-01-06T07:05:36.625Z,7.00
2019-01-06T07:08:23.100Z,7.00
2019-01-06T07:11:09.633Z,7.00
2019-01-06T07:13:56.229Z,7.00
2019-01-06T07:17:39.510Z,7.10
2019-01-06T07:20:27.208Z,7.00
2019-01-06T07:23:18.026Z,7.00
2019-01-06T07:26:11.533Z,7.00
2019-01-06T07:28:58.106Z,7.00
2019-01-06T07:32:04.085Z,7.10
2019-01-06T07:34:55.094Z,7.00
2019-01-06T07:37:41.451Z,7.00
2019-01-06T07:40:35.363Z,7.10
2019-01-06T07:43:25.813Z,7.10
2019-01-06T07:46:16.744Z,7.10
2019-01-06T07:49:13.526Z,7.10
2019-01-06T07:52:03.720Z,7.20
2019-01-06T07:54:43.967Z,7.20
2019-01-06T07:57:34.833Z,7.10
2019-01-06T08:00:31.719Z,7.10
2019-01-06T08:03:26.920Z,7.10
2019-01-06T08:06:13.129Z,7.10
2019-01-06T08:09:00.995Z,7.10
2019-01-06T08:11:57.669Z,7.20
2019-01-06T08:14:43.806Z,7.20
2019-01-06T08:17:31.433Z,7.20
2019-01-06T08:20:17.926Z,7.30
2019-01-06T08:23:11.929Z,7.20
2019-01-06T08:26:18.819Z,7.30
2019-01-06T08:29:05.533Z,7.30
2019-01-06T08:31:51.745Z,7.20
2019-01-06T08:34:38.571Z,7.30
2019-01-06T08:37:32.369Z,7.30
2019-01-06T08:40:23.014Z,7.40
2019-01-06T08:43:23.181Z,7.40
2019-01-06T08:46:09.466Z,7.50
2019-01-06T08:48:55.927Z,7.30
2019-01-06T08:51:42.503Z,7.30
2019-01-06T08:54:23.635Z,7.30
2019-01-06T08:57:09.160Z,7.30
2019-01-06T09:00:00.203Z,7.30
2019-01-06T09:02:58.710Z,7.30
2019-01-06T09:05:45.320Z,7.40
2019-01-06T09:08:31.819Z,7.30
2019-01-06T09:11:28.965Z,7.30
2019-01-06T09:14:26.098Z,7.30
2019-01-06T09:17:12.605Z,7.30
2019-01-06T09:19:59.392Z,7.30
2019-01-06T09:22:47.272Z,7.30
2019-01-06T09:25:46.959Z,7.30
2019-01-06T09:28:53.012Z,7.40
2019-01-06T09:31:36.798Z,7.40
2019-01-06T09:34:16.008Z,7.50
2019-01-06T09:37:03.815Z,7.50
2019-01-06T09:39:50.569Z,7.40
2019-01-06T09:42:44.825Z,7.40
2019-01-06T09:45:32.913Z,7.50
2019-01-06T09:48:26.826Z,7.70
2019-01-06T09:51:26.377Z,7.60
2019-01-06T09:54:14.223Z,7.50
2019-01-06T09:57:00.767Z,7.60
2019-01-06T09:59:47.002Z,7.70
2019-01-06T10:02:40.956Z,7.70
2019-01-06T10:05:40.683Z,7.70
2019-01-06T10:08:27.161Z,7.70
2019-01-06T10:11:19.477Z,7.70
2019-01-06T10:14:05.799Z,7.60
2019-01-06T10:16:52.943Z,7.60
2019-01-06T10:19:39.234Z,7.50
2019-01-06T10:22:35.295Z,7.50
2019-01-06T10:25:35.317Z,7.50
2019-01-06T10:28:21.610Z,7.40
2019-01-06T10:31:21.550Z,7.50
2019-01-06T10:34:04.539Z,7.50
2019-01-06T10:36:50.909Z,7.50
2019-01-06T10:39:54.079Z,7.50
2019-01-06T10:42:47.835Z,7.50
2019-01-06T10:45:34.150Z,7.40
2019-01-06T10:48:20.746Z,7.50
2019-01-06T10:51:07.431Z,7.60
2019-01-06T10:53:57.001Z,7.60
2019-01-06T10:56:43.574Z,7.50
2019-01-06T10:59:38.609Z,7.50
2019-01-06T11:02:35.744Z,7.70
2019-01-06T11:05:22.474Z,7.80
2019-01-06T11:08:08.660Z,7.80
2019-01-06T11:10:55.143Z,7.70
2019-01-06T11:13:52.148Z,7.60
2019-01-06T11:16:38.821Z,7.60
2019-01-06T11:19:25.370Z,7.60
2019-01-06T11:22:19.300Z,7.70
2019-01-06T11:25:05.805Z,7.70
2019-01-06T11:28:03.403Z,7.60
2019-01-06T11:30:49.673Z,7.60
2019-01-06T11:33:38.349Z,7.60
2019-01-06T11:36:26.353Z,7.70
2019-01-06T11:39:12.899Z,7.70
2019-01-06T11:41:55.518Z,7.80
2019-01-06T11:44:52.775Z,7.80
2019-01-06T11:47:39.011Z,7.70
2019-01-06T11:50:34.065Z,7.60
2019-01-06T11:53:20.411Z,7.50
2019-01-06T11:56:08.191Z,7.40
2019-01-06T11:59:04.749Z,7.40
2019-01-06T12:01:45.243Z,7.40
2019-01-06T12:04:51.071Z,7.60
2019-01-06T12:07:53.841Z,7.70
2019-01-06T12:10:31.397Z,7.70
2019-01-06T12:13:24.944Z,7.70
2019-01-06T12:16:14.208Z,7.50
2019-01-06T12:18:59.664Z,7.50
2019-01-06T12:21:45.997Z,7.60
2019-01-06T12:24:30.281Z,7.80
2019-01-06T12:27:33.611Z,7.80
2019-01-06T12:30:20.244Z,7.80
2019-01-06T12:33:08.034Z,7.80
2019-01-06T12:36:07.807Z,7.90
2019-01-06T12:38:55.627Z,7.80
2019-01-06T12:41:55.356Z,7.90
2019-01-06T12:44:49.875Z,7.90
2019-01-06T12:47:49.745Z,7.90
2019-01-06T12:50:35.387Z,7.70
2019-01-06T12:53:14.617Z,7.70
2019-01-06T12:56:05.549Z,7.70
2019-01-06T12:58:53.392Z,7.70
2019-01-06T13:01:40.789Z,7.60
2019-01-06T13:04:43.455Z,7.60
2019-01-06T13:07:31.259Z,7.70
2019-01-06T13:10:17.293Z,7.70
2019-01-06T13:13:04.217Z,7.60
2019-01-06T13:15:48.251Z,7.60
2019-01-06T13:18:28.413Z,7.60
2019-01-06T13:21:22.221Z,7.70
2019-01-06T13:24:08.452Z,7.80
2019-01-06T13:26:56.389Z,7.90
2019-01-06T13:30:02.203Z,7.80
2019-01-06T13:32:55.989Z,7.90
2019-01-06T13:35:42.262Z,7.80
2019-01-06T13:38:30.111Z,7.80
2019-01-06T13:41:10.985Z,7.90
2019-01-06T13:43:57.430Z,7.80
2019-01-06T13:46:45.307Z,7.70
2019-01-06T13:49:31.190Z,7.80
2019-01-06T13:52:17.731Z,7.70
2019-01-06T13:55:14.649Z,7.70
2019-01-06T13:57:58.675Z,7.80
2019-01-06T14:00:46.509Z,7.70
2019-01-06T14:03:42.356Z,7.60
2019-01-06T14:06:36.215Z,7.70
2019-01-06T14:09:23.430Z,7.60
2019-01-06T14:12:20.318Z,7.60
2019-01-06T14:15:06.798Z,7.60
2019-01-06T14:17:57.687Z,7.70
2019-01-06T14:20:57.859Z,7.80
2019-01-06T14:23:38.444Z,7.80
2019-01-06T14:26:26.227Z,7.70
2019-01-06T14:29:09.902Z,7.70
2019-01-06T14:31:57.801Z,7.70
2019-01-06T14:34:36.166Z,7.70
2019-01-06T14:37:22.839Z,7.70
2019-01-06T14:40:05.313Z,7.60
2019-01-06T14:42:50.880Z,7.60
2019-01-06T14:45:47.459Z,7.70
2019-01-06T14:48:38.124Z,7.70
2019-01-06T14:51:34.326Z,7.70
2019-01-06T14:54:12.836Z,7.60
2019-01-06T14:56:59.360Z,7.50
2019-01-06T14:59:56.386Z,7.50
2019-01-06T15:02:41.503Z,7.40
2019-01-06T15:05:27.981Z,7.40
2019-01-06T15:08:14.417Z,7.30
2019-01-06T15:11:05.286Z,7.30
2019-01-06T15:14:00.529Z,7.30
2019-01-06T15:16:54.339Z,7.30
2019-01-06T15:19:45.218Z,7.20
2019-01-06T15:22:31.810Z,7.20
2019-01-06T15:25:19.594Z,7.10
2019-01-06T15:28:10.252Z,7.10
2019-01-06T15:31:00.946Z,7.10
2019-01-06T15:34:02.750Z,7.20
2019-01-06T15:36:49.230Z,7.10
2019-01-06T15:39:33.451Z,7.10
2019-01-06T15:45:49.113Z,7.10
2019-01-06T15:49:14.762Z,7.10
2019-01-06T15:52:16.296Z,7.10
2019-01-06T15:54:56.992Z,7.20
2019-01-06T15:57:55.397Z,7.20
2019-01-06T16:01:03.272Z,7.10
2019-01-06T16:04:08.291Z,7.20
2019-01-06T16:07:19.631Z,7.10
2019-01-06T16:10:20.235Z,7.10
2019-01-06T16:13:30.827Z,7.10
2019-01-06T16:17:00.343Z,7.10
2019-01-06T16:19:48.966Z,7.10
2019-01-06T16:26:38.022Z,7.10
2019-01-06T16:29:31.199Z,7.10
2019-01-06T16:39:54.844Z,7.10
2019-01-06T16:42:41.370Z,7.00
2019-01-06T16:45:44.131Z,6.90
2019-01-06T16:48:44.395Z,6.90
2019-01-06T16:51:47.320Z,6.90
2019-01-06T16:54:49.779Z,6.90
2019-01-06T16:57:35.060Z,6.80
2019-01-06T17:00:44.350Z,6.90
2019-01-06T17:03:30.158Z,6.90
2019-01-06T17:06:27.126Z,6.80
2019-01-06T17:09:13.631Z,6.80
2019-01-06T17:12:07.891Z,6.80
2019-01-06T17:15:02.016Z,6.80
2019-01-06T17:17:56.864Z,6.80
2019-01-06T17:20:45.826Z,6.80
2019-01-06T17:23:34.278Z,6.70
2019-01-06T17:26:28.329Z,6.70
2019-01-06T17:29:15.178Z,6.70
2019-01-06T17:32:09.474Z,6.60
2019-01-06T17:34:58.333Z,6.60
2019-01-06T17:37:55.298Z,6.70
2019-01-06T17:40:42.833Z,6.60
2019-01-06T17:43:30.719Z,6.60
2019-01-06T17:46:33.861Z,6.60
2019-01-06T17:49:17.091Z,6.60
2019-01-06T17:52:00.987Z,6.70
2019-01-06T17:54:48.496Z,6.70
2019-01-06T17:57:48.606Z,6.70
2019-01-06T18:00:45.494Z,6.70
2019-01-06T18:03:51.325Z,6.60
2019-01-06T18:06:56.348Z,6.60
2019-01-06T18:09:42.901Z,6.60
2019-01-06T18:12:40.180Z,6.60
2019-01-06T18:15:34.723Z,6.70
2019-01-06T18:18:25.615Z,6.70
2019-01-06T18:21:34.505Z,6.70
2019-01-06T18:24:30.201Z,6.70
2019-01-06T18:27:31.226Z,6.80
2019-01-06T18:30:17.862Z,6.80
2019-01-06T18:33:05.891Z,6.70
2019-01-06T18:36:11.849Z,6.60
2019-01-06T18:39:02.896Z,6.70
2019-01-06T18:41:49.669Z,6.70
2019-01-06T18:44:46.417Z,6.70
2019-01-06T18:47:52.603Z,6.60
2019-01-06T18:50:46.396Z,6.60
2019-01-06T18:53:37.386Z,6.60
2019-01-06T18:56:17.847Z,6.60
2019-01-06T18:59:04.915Z,6.60
2019-01-06T19:02:08.079Z,6.60
2019-01-06T19:04:54.345Z,6.50
2019-01-06T19:07:38.119Z,6.60
2019-01-06T19:10:44.270Z,6.60
2019-01-06T19:13:33.827Z,6.60
2019-01-06T19:16:15.682Z,6.60
2019-01-06T19:19:01.960Z,6.60
2019-01-06T19:21:44.373Z,6.60
2019-01-06T19:24:30.904Z,6.50
2019-01-06T19:27:17.596Z,6.50
2019-01-06T19:30:00.964Z,6.50
2019-01-06T19:32:47.347Z,6.50
2019-01-06T19:35:35.335Z,6.60
2019-01-06T19:38:31.031Z,6.60
2019-01-06T19:41:17.219Z,6.60
2019-01-06T19:44:11.395Z,6.60
2019-01-06T19:46:58.120Z,6.60
2019-01-06T19:49:52.329Z,6.60
2019-01-06T19:52:35.398Z,6.60
2019-01-06T19:55:26.492Z,6.60
2019-01-06T19:58:20.748Z,6.70
2019-01-06T20:01:20.656Z,6.70
2019-01-06T20:04:10.559Z,6.70
2019-01-06T20:07:07.666Z,6.70
2019-01-06T20:10:04.568Z,6.60
2019-01-06T20:12:51.283Z,6.60
2019-01-06T20:15:37.857Z,6.50
2019-01-06T20:18:24.405Z,6.60
2019-01-06T20:21:10.975Z,6.60
2019-01-06T20:24:11.100Z,6.50
2019-01-06T20:26:57.390Z,6.50
2019-01-06T20:29:43.753Z,6.50
2019-01-06T20:32:34.596Z,6.50
2019-01-06T20:35:37.425Z,6.40
2019-01-06T20:38:25.235Z,6.50
2019-01-06T20:41:11.546Z,6.50
2019-01-06T20:44:03.029Z,6.50
2019-01-06T20:47:01.378Z,6.60
2019-01-06T20:49:50.713Z,6.50
2019-01-06T20:52:44.477Z,6.40
2019-01-06T20:55:35.245Z,6.40
2019-01-06T20:58:21.589Z,6.40
2019-01-06T21:01:09.358Z,6.50
2019-01-06T21:03:57.215Z,6.40
2019-01-06T21:06:52.410Z,6.40
2019-01-06T21:09:49.251Z,6.40
2019-01-06T21:12:49.216Z,6.40
2019-01-06T21:15:44.279Z,6.40
2019-01-06T21:18:39.702Z,6.40
2019-01-06T21:21:30.354Z,6.40
2019-01-06T21:24:09.978Z,6.30
2019-01-06T21:26:56.468Z,6.20
2019-01-06T21:29:42.984Z,6.20
2019-01-06T21:32:30.804Z,6.20
2019-01-06T21:35:17.312Z,6.20
2019-01-06T21:38:05.128Z,6.20
2019-01-06T21:41:11.354Z,6.20
2019-01-06T21:43:59.240Z,6.20
2019-01-06T21:46:49.943Z,6.20
2019-01-06T21:49:33.311Z,6.20
2019-01-06T21:52:19.995Z,6.20
2019-01-06T21:55:19.943Z,6.20
2019-01-06T21:58:13.916Z,6.10
2019-01-06T22:01:00.232Z,6.10
2019-01-06T22:03:46.133Z,6.20
2019-01-06T22:06:43.436Z,6.20
2019-01-06T22:09:26.332Z,6.10
2019-01-06T22:12:20.128Z,6.10
2019-01-06T22:15:08.106Z,6.20
2019-01-06T22:17:54.703Z,6.20
2019-01-06T22:20:38.785Z,6.20
2019-01-06T22:23:25.398Z,6.20
2019-01-06T22:26:15.975Z,6.20
2019-01-06T22:29:03.505Z,6.20
2019-01-06T22:31:57.433Z,6.10
2019-01-06T22:34:44.159Z,6.10
2019-01-06T22:37:43.570Z,6.10
2019-01-06T22:40:40.157Z,6.10
2019-01-06T22:43:26.677Z,6.10
2019-01-06T22:46:10.117Z,6.10
2019-01-06T22:48:56.638Z,6.10
2019-01-06T22:51:47.474Z,6.10
2019-01-06T22:54:33.779Z,6.10
2019-01-06T22:57:24.236Z,6.10
2019-01-06T23:00:27.177Z,6.20
2019-01-06T23:03:13.960Z,6.10
2019-01-06T23:06:00.011Z,6.10
2019-01-06T23:08:53.689Z,6.10
2019-01-06T23:11:39.935Z,6.10
2019-01-06T23:14:20.245Z,6.00
2019-01-06T23:17:12.439Z,6.10
2019-01-06T23:20:06.985Z,6.10
2019-01-06T23:22:51.905Z,6.00
2019-01-06T23:25:38.543Z,6.00
2019-01-06T23:28:29.081Z,6.00
2019-01-06T23:31:04.908Z,6.00
2019-01-06T23:33:51.907Z,6.00
2019-01-06T23:36:38.406Z,5.90
2019-01-06T23:39:32.127Z,5.90
2019-01-06T23:42:32.224Z,5.90
2019-01-06T23:45:17.687Z,5.90
2019-01-06T23:48:03.284Z,5.90
2019-01-06T23:50:49.538Z,5.90
2019-01-06T23:53:40.690Z,5.90
2019-01-06T23:56:28.482Z,5.90
2019-01-06T23:59:12.572Z,5.90
